sensor_id;sensor_type;location;lat;lon;timestamp;pressure;altitude;pressure_sealevel;temperature;humidity
23318;BME280;11831;55.918;37.746;2023-03-23T00:01:35;99064.22;;;6.92;0.00
23318;BME280;11831;55.918;37.746;2023-03-23T00:04:03;99067.25;;;6.96;0.00
23318;BME280;11831;55.918;37.746;2023-03-23T00:06:30;99064.22;;;7.24;0.00
23318;BME280;11831;55.918;37.746;2023-03-23T00:08:59;99059.03;;;7.04;0.00
23318;BME280;11831;55.918;37.746;2023-03-23T00:11:30;99059.28;;;6.96;0.00
23318;BME280;11831;55.918;37.746;2023-03-23T00:13:59;99056.25;;;7.24;0.00
23318;BME280;11831;55.918;37.746;2023-03-23T00:16:29;99048.69;;;6.89;0.00
23318;BME280;11831;55.918;37.746;2023-03-23T00:19:01;99041.94;;;6.93;0.00
23318;BME280;11831;55.918;37.746;2023-03-23T00:21:36;99054.13;;;7.01;0.00
23318;BME280;11831;55.918;37.746;2023-03-23T00:24:13;99060.28;;;6.63;0.00
23318;BME280;11831;55.918;37.746;2023-03-23T00:26:43;99047.06;;;6.88;0.00
23318;BME280;11831;55.918;37.746;2023-03-23T00:29:13;99051.84;;;6.73;0.00
23318;BME280;11831;55.918;37.746;2023-03-23T00:31:42;99037.97;;;7.02;0.00
23318;BME280;11831;55.918;37.746;2023-03-23T00:34:18;99043.25;;;6.77;0.00
23318;BME280;11831;55.918;37.746;2023-03-23T00:36:50;99038.25;;;6.94;0.00
23318;BME280;11831;55.918;37.746;2023-03-23T00:39:17;99040.13;;;6.87;0.00
23318;BME280;11831;55.918;37.746;2023-03-23T00:41:44;99039.81;;;7.02;0.00
23318;BME280;11831;55.918;37.746;2023-03-23T00:44:12;99031.72;;;7.22;0.00
23318;BME280;11831;55.918;37.746;2023-03-23T00:46:46;99043.38;;;6.89;0.00
23318;BME280;11831;55.918;37.746;2023-03-23T00:49:17;99034.00;;;7.18;0.00
23318;BME280;11831;55.918;37.746;2023-03-23T00:51:44;99024.19;;;7.19;0.00
23318;BME280;11831;55.918;37.746;2023-03-23T00:54:11;99020.47;;;7.20;0.00
23318;BME280;11831;55.918;37.746;2023-03-23T00:56:38;99032.50;;;6.97;0.00
23318;BME280;11831;55.918;37.746;2023-03-23T00:59:06;99018.00;;;7.50;0.00
23318;BME280;11831;55.918;37.746;2023-03-23T01:01:33;99021.41;;;7.07;0.00
23318;BME280;11831;55.918;37.746;2023-03-23T01:04:01;99008.22;;;7.43;0.00
23318;BME280;11831;55.918;37.746;2023-03-23T01:06:32;99020.13;;;7.66;0.00
23318;BME280;11831;55.918;37.746;2023-03-23T01:09:02;99023.31;;;7.25;0.00
23318;BME280;11831;55.918;37.746;2023-03-23T01:11:29;99019.28;;;7.15;0.00
23318;BME280;11831;55.918;37.746;2023-03-23T01:13:55;99013.22;;;7.08;0.00
23318;BME280;11831;55.918;37.746;2023-03-23T01:16:21;99015.50;;;7.05;0.00
23318;BME280;11831;55.918;37.746;2023-03-23T01:18:48;99010.94;;;7.37;0.00
23318;BME280;11831;55.918;37.746;2023-03-23T01:21:16;99005.03;;;7.35;0.00
23318;BME280;11831;55.918;37.746;2023-03-23T01:23:43;99007.69;;;7.35;0.00
23318;BME280;11831;55.918;37.746;2023-03-23T01:26:13;99008.34;;;7.05;0.00
23318;BME280;11831;55.918;37.746;2023-03-23T01:28:40;99001.16;;;7.31;0.00
23318;BME280;11831;55.918;37.746;2023-03-23T01:31:08;99011.75;;;7.12;0.00
23318;BME280;11831;55.918;37.746;2023-03-23T01:33:36;99005.28;;;7.27;0.00
23318;BME280;11831;55.918;37.746;2023-03-23T01:36:05;98992.56;;;7.04;0.00
23318;BME280;11831;55.918;37.746;2023-03-23T01:38:33;98994.37;;;7.10;0.00
23318;BME280;11831;55.918;37.746;2023-03-23T01:40:59;98998.41;;;7.19;0.00
23318;BME280;11831;55.918;37.746;2023-03-23T01:43:26;98994.53;;;7.15;0.00
23318;BME280;11831;55.918;37.746;2023-03-23T01:45:52;99000.47;;;7.17;0.00
23318;BME280;11831;55.918;37.746;2023-03-23T01:48:28;98991.97;;;7.02;0.00
23318;BME280;11831;55.918;37.746;2023-03-23T01:50:59;98992.16;;;7.07;0.00
23318;BME280;11831;55.918;37.746;2023-03-23T01:53:32;98980.50;;;7.08;0.00
23318;BME280;11831;55.918;37.746;2023-03-23T01:56:01;98980.53;;;7.01;0.00
23318;BME280;11831;55.918;37.746;2023-03-23T01:58:31;98975.53;;;6.87;0.00
23318;BME280;11831;55.918;37.746;2023-03-23T02:01:02;98974.81;;;6.98;0.00
23318;BME280;11831;55.918;37.746;2023-03-23T02:03:29;98968.75;;;6.91;0.00
23318;BME280;11831;55.918;37.746;2023-03-23T02:05:58;98970.72;;;7.02;0.00
23318;BME280;11831;55.918;37.746;2023-03-23T02:08:27;98978.25;;;6.80;0.00
23318;BME280;11831;55.918;37.746;2023-03-23T02:10:55;98969.56;;;6.91;0.00
23318;BME280;11831;55.918;37.746;2023-03-23T02:13:21;98964.84;;;6.93;0.00
23318;BME280;11831;55.918;37.746;2023-03-23T02:30:40;98948.31;;;6.91;0.00
23318;BME280;11831;55.918;37.746;2023-03-23T02:36:28;98953.78;;;6.65;0.00
23318;BME280;11831;55.918;37.746;2023-03-23T02:42:10;98946.03;;;6.63;0.00
23318;BME280;11831;55.918;37.746;2023-03-23T02:44:41;98943.94;;;6.72;0.00
23318;BME280;11831;55.918;37.746;2023-03-23T02:47:15;98944.03;;;6.59;0.00
23318;BME280;11831;55.918;37.746;2023-03-23T02:49:45;98953.62;;;6.60;0.00
23318;BME280;11831;55.918;37.746;2023-03-23T02:52:17;98948.38;;;6.53;0.00
23318;BME280;11831;55.918;37.746;2023-03-23T02:54:48;98947.13;;;6.56;0.00
23318;BME280;11831;55.918;37.746;2023-03-23T02:57:17;98943.13;;;6.71;0.00
23318;BME280;11831;55.918;37.746;2023-03-23T02:59:43;98942.41;;;6.58;0.00
23318;BME280;11831;55.918;37.746;2023-03-23T03:02:12;98939.31;;;6.61;0.00
23318;BME280;11831;55.918;37.746;2023-03-23T03:04:42;98942.66;;;6.81;0.00
23318;BME280;11831;55.918;37.746;2023-03-23T03:07:37;98934.25;;;6.84;0.00
23318;BME280;11831;55.918;37.746;2023-03-23T03:12:53;98937.09;;;6.58;0.00
23318;BME280;11831;55.918;37.746;2023-03-23T03:15:32;98929.16;;;6.82;0.00
23318;BME280;11831;55.918;37.746;2023-03-23T03:18:12;98938.25;;;6.68;0.00
23318;BME280;11831;55.918;37.746;2023-03-23T03:20:48;98923.34;;;6.92;0.00
23318;BME280;11831;55.918;37.746;2023-03-23T03:23:17;98939.75;;;6.89;0.00
23318;BME280;11831;55.918;37.746;2023-03-23T03:25:46;98928.66;;;6.92;0.00
23318;BME280;11831;55.918;37.746;2023-03-23T03:28:18;98929.59;;;6.79;0.00
23318;BME280;11831;55.918;37.746;2023-03-23T03:30:58;98928.00;;;6.72;0.00
23318;BME280;11831;55.918;37.746;2023-03-23T03:33:28;98912.84;;;6.79;0.00
23318;BME280;11831;55.918;37.746;2023-03-23T03:36:02;98914.34;;;6.68;0.00
23318;BME280;11831;55.918;37.746;2023-03-23T03:38:29;98924.16;;;6.68;0.00
23318;BME280;11831;55.918;37.746;2023-03-23T03:40:56;98923.53;;;6.66;0.00
23318;BME280;11831;55.918;37.746;2023-03-23T03:43:23;98916.69;;;6.83;0.00
23318;BME280;11831;55.918;37.746;2023-03-23T03:45:49;98920.38;;;6.82;0.00
23318;BME280;11831;55.918;37.746;2023-03-23T03:48:16;98921.09;;;6.64;0.00
23318;BME280;11831;55.918;37.746;2023-03-23T03:50:42;98914.41;;;6.87;0.00
23318;BME280;11831;55.918;37.746;2023-03-23T03:53:08;98905.84;;;6.84;0.00
23318;BME280;11831;55.918;37.746;2023-03-23T03:55:35;98908.06;;;6.88;0.00
23318;BME280;11831;55.918;37.746;2023-03-23T03:58:04;98906.66;;;6.85;0.00
23318;BME280;11831;55.918;37.746;2023-03-23T04:00:32;98901.78;;;6.82;0.00
23318;BME280;11831;55.918;37.746;2023-03-23T04:02:58;98905.53;;;6.68;0.00
23318;BME280;11831;55.918;37.746;2023-03-23T04:05:26;98905.53;;;6.74;0.00
23318;BME280;11831;55.918;37.746;2023-03-23T04:07:55;98905.69;;;6.79;0.00
23318;BME280;11831;55.918;37.746;2023-03-23T04:10:29;98913.28;;;6.69;0.00
23318;BME280;11831;55.918;37.746;2023-03-23T04:12:55;98909.00;;;6.75;0.00
23318;BME280;11831;55.918;37.746;2023-03-23T04:15:22;98906.13;;;6.70;0.00
23318;BME280;11831;55.918;37.746;2023-03-23T04:17:49;98905.91;;;6.78;0.00
23318;BME280;11831;55.918;37.746;2023-03-23T04:20:16;98908.59;;;6.71;0.00
23318;BME280;11831;55.918;37.746;2023-03-23T04:22:45;98907.31;;;6.80;0.00
23318;BME280;11831;55.918;37.746;2023-03-23T04:25:17;98906.53;;;6.98;0.00
23318;BME280;11831;55.918;37.746;2023-03-23T04:27:50;98898.13;;;7.01;0.00
23318;BME280;11831;55.918;37.746;2023-03-23T04:30:21;98903.56;;;7.13;0.00
23318;BME280;11831;55.918;37.746;2023-03-23T04:32:50;98896.84;;;7.10;0.00
23318;BME280;11831;55.918;37.746;2023-03-23T04:35:18;98904.03;;;7.28;0.00
23318;BME280;11831;55.918;37.746;2023-03-23T04:37:45;98905.94;;;7.21;0.00
23318;BME280;11831;55.918;37.746;2023-03-23T04:40:13;98902.59;;;7.07;0.00
23318;BME280;11831;55.918;37.746;2023-03-23T04:42:44;98909.22;;;7.41;0.00
23318;BME280;11831;55.918;37.746;2023-03-23T04:45:20;98906.50;;;7.48;0.00
23318;BME280;11831;55.918;37.746;2023-03-23T04:47:51;98903.69;;;7.43;0.00
23318;BME280;11831;55.918;37.746;2023-03-23T04:50:29;98906.41;;;7.55;0.00
23318;BME280;11831;55.918;37.746;2023-03-23T04:52:57;98910.97;;;7.29;0.00
23318;BME280;11831;55.918;37.746;2023-03-23T04:55:25;98934.87;;;7.11;0.00
23318;BME280;11831;55.918;37.746;2023-03-23T04:57:52;98915.56;;;7.40;0.00
23318;BME280;11831;55.918;37.746;2023-03-23T05:00:20;98917.88;;;7.37;0.00
23318;BME280;11831;55.918;37.746;2023-03-23T05:02:47;98921.16;;;7.32;0.00
23318;BME280;11831;55.918;37.746;2023-03-23T05:05:19;98914.84;;;7.52;0.00
23318;BME280;11831;55.918;37.746;2023-03-23T05:07:45;98922.03;;;7.26;0.00
23318;BME280;11831;55.918;37.746;2023-03-23T05:10:13;98917.28;;;7.71;0.00
23318;BME280;11831;55.918;37.746;2023-03-23T05:12:42;98928.31;;;7.32;0.00
23318;BME280;11831;55.918;37.746;2023-03-23T05:15:10;98933.25;;;7.28;0.00
23318;BME280;11831;55.918;37.746;2023-03-23T05:17:36;98939.16;;;7.12;0.00
23318;BME280;11831;55.918;37.746;2023-03-23T05:20:05;98923.28;;;7.67;0.00
23318;BME280;11831;55.918;37.746;2023-03-23T05:22:41;98927.69;;;7.55;0.00
23318;BME280;11831;55.918;37.746;2023-03-23T05:25:08;98930.09;;;7.20;0.00
23318;BME280;11831;55.918;37.746;2023-03-23T05:27:38;98927.78;;;7.66;0.00
23318;BME280;11831;55.918;37.746;2023-03-23T05:30:05;98928.38;;;7.68;0.00
23318;BME280;11831;55.918;37.746;2023-03-23T05:32:32;98928.75;;;7.72;0.00
23318;BME280;11831;55.918;37.746;2023-03-23T05:35:00;98936.25;;;7.57;0.00
23318;BME280;11831;55.918;37.746;2023-03-23T05:37:27;98922.94;;;8.12;0.00
23318;BME280;11831;55.918;37.746;2023-03-23T05:39:59;98930.53;;;7.78;0.00
23318;BME280;11831;55.918;37.746;2023-03-23T05:42:35;98927.69;;;7.91;0.00
23318;BME280;11831;55.918;37.746;2023-03-23T05:45:03;98924.81;;;8.11;0.00
23318;BME280;11831;55.918;37.746;2023-03-23T05:47:30;98931.34;;;7.97;0.00
23318;BME280;11831;55.918;37.746;2023-03-23T05:49:57;98936.69;;;8.27;0.00
23318;BME280;11831;55.918;37.746;2023-03-23T05:52:24;98926.56;;;8.35;0.00
23318;BME280;11831;55.918;37.746;2023-03-23T05:54:52;98948.44;;;8.19;0.00
23318;BME280;11831;55.918;37.746;2023-03-23T05:57:19;98923.72;;;8.00;0.00
23318;BME280;11831;55.918;37.746;2023-03-23T05:59:48;98945.88;;;7.94;0.00
23318;BME280;11831;55.918;37.746;2023-03-23T06:02:15;98927.22;;;8.31;0.00
23318;BME280;11831;55.918;37.746;2023-03-23T06:04:41;98931.03;;;9.07;0.00
23318;BME280;11831;55.918;37.746;2023-03-23T06:07:09;98941.84;;;8.70;0.00
23318;BME280;11831;55.918;37.746;2023-03-23T06:09:41;98923.19;;;8.58;0.00
23318;BME280;11831;55.918;37.746;2023-03-23T06:12:08;98933.47;;;8.55;0.00
23318;BME280;11831;55.918;37.746;2023-03-23T06:14:36;98921.91;;;8.61;0.00
23318;BME280;11831;55.918;37.746;2023-03-23T06:17:02;98928.69;;;8.45;0.00
23318;BME280;11831;55.918;37.746;2023-03-23T06:19:29;98926.75;;;9.17;0.00
23318;BME280;11831;55.918;37.746;2023-03-23T06:21:55;98929.62;;;9.16;0.00
23318;BME280;11831;55.918;37.746;2023-03-23T06:24:22;98919.25;;;8.61;0.00
23318;BME280;11831;55.918;37.746;2023-03-23T06:26:49;98912.09;;;8.85;0.00
23318;BME280;11831;55.918;37.746;2023-03-23T06:29:16;98917.41;;;8.73;0.00
23318;BME280;11831;55.918;37.746;2023-03-23T06:31:46;98908.12;;;8.64;0.00
23318;BME280;11831;55.918;37.746;2023-03-23T06:34:14;98916.25;;;8.69;0.00
23318;BME280;11831;55.918;37.746;2023-03-23T06:36:40;98921.88;;;8.91;0.00
23318;BME280;11831;55.918;37.746;2023-03-23T06:39:09;98921.88;;;8.91;0.00
23318;BME280;11831;55.918;37.746;2023-03-23T06:41:36;98926.87;;;9.22;0.00
23318;BME280;11831;55.918;37.746;2023-03-23T06:44:02;98914.09;;;9.71;0.00
23318;BME280;11831;55.918;37.746;2023-03-23T06:46:29;98921.91;;;9.49;0.00
23318;BME280;11831;55.918;37.746;2023-03-23T06:48:56;98909.94;;;9.17;0.00
23318;BME280;11831;55.918;37.746;2023-03-23T06:51:23;98923.03;;;9.18;0.00
23318;BME280;11831;55.918;37.746;2023-03-23T06:53:50;98912.38;;;9.07;0.00
23318;BME280;11831;55.918;37.746;2023-03-23T06:56:16;98914.13;;;9.24;0.00
23318;BME280;11831;55.918;37.746;2023-03-23T06:58:43;98900.41;;;9.68;0.00
23318;BME280;11831;55.918;37.746;2023-03-23T07:01:11;98904.03;;;9.50;0.00
23318;BME280;11831;55.918;37.746;2023-03-23T07:03:38;98904.37;;;9.30;0.00
23318;BME280;11831;55.918;37.746;2023-03-23T07:06:07;98913.53;;;9.34;0.00
23318;BME280;11831;55.918;37.746;2023-03-23T07:08:35;98913.03;;;9.84;0.00
23318;BME280;11831;55.918;37.746;2023-03-23T07:11:02;98902.03;;;9.69;0.00
23318;BME280;11831;55.918;37.746;2023-03-23T07:13:28;98901.34;;;9.38;0.00
23318;BME280;11831;55.918;37.746;2023-03-23T07:15:55;98900.97;;;9.81;0.00
23318;BME280;11831;55.918;37.746;2023-03-23T07:18:22;98911.78;;;9.40;0.00
23318;BME280;11831;55.918;37.746;2023-03-23T07:20:49;98898.78;;;9.67;0.00
23318;BME280;11831;55.918;37.746;2023-03-23T07:23:17;98888.87;;;10.19;0.00
23318;BME280;11831;55.918;37.746;2023-03-23T07:25:44;98887.63;;;9.81;0.00
23318;BME280;11831;55.918;37.746;2023-03-23T07:28:12;98881.59;;;10.03;0.00
23318;BME280;11831;55.918;37.746;2023-03-23T07:30:39;98901.41;;;9.78;0.00
23318;BME280;11831;55.918;37.746;2023-03-23T07:33:07;98899.81;;;10.17;0.00
23318;BME280;11831;55.918;37.746;2023-03-23T07:35:34;98898.91;;;10.00;0.00
23318;BME280;11831;55.918;37.746;2023-03-23T07:38:02;98891.34;;;10.20;0.00
23318;BME280;11831;55.918;37.746;2023-03-23T07:40:30;98901.88;;;9.87;0.00
23318;BME280;11831;55.918;37.746;2023-03-23T07:43:00;98897.78;;;9.96;0.00
23318;BME280;11831;55.918;37.746;2023-03-23T07:45:27;98890.63;;;9.85;0.00
23318;BME280;11831;55.918;37.746;2023-03-23T07:47:54;98871.59;;;10.83;0.00
23318;BME280;11831;55.918;37.746;2023-03-23T07:50:21;98882.66;;;10.42;0.00
23318;BME280;11831;55.918;37.746;2023-03-23T07:52:53;98887.53;;;10.62;0.00
23318;BME280;11831;55.918;37.746;2023-03-23T07:55:20;98878.72;;;10.95;0.00
23318;BME280;11831;55.918;37.746;2023-03-23T07:57:47;98884.25;;;11.05;0.00
23318;BME280;11831;55.918;37.746;2023-03-23T08:00:16;98878.00;;;10.82;0.00
23318;BME280;11831;55.918;37.746;2023-03-23T08:02:46;98871.00;;;10.65;0.00
23318;BME280;11831;55.918;37.746;2023-03-23T08:05:13;98883.81;;;10.96;0.00
23318;BME280;11831;55.918;37.746;2023-03-23T08:07:41;98879.50;;;11.29;0.00
23318;BME280;11831;55.918;37.746;2023-03-23T08:10:09;98883.84;;;11.51;0.00
23318;BME280;11831;55.918;37.746;2023-03-23T08:12:38;98895.50;;;10.73;0.00
23318;BME280;11831;55.918;37.746;2023-03-23T08:15:06;98887.87;;;10.37;0.00
23318;BME280;11831;55.918;37.746;2023-03-23T08:17:34;98876.12;;;11.00;0.00
23318;BME280;11831;55.918;37.746;2023-03-23T08:20:02;98872.50;;;10.72;0.00
23318;BME280;11831;55.918;37.746;2023-03-23T08:22:37;98883.34;;;10.82;0.00
23318;BME280;11831;55.918;37.746;2023-03-23T08:25:05;98865.09;;;11.13;0.00
23318;BME280;11831;55.918;37.746;2023-03-23T08:27:33;98873.47;;;10.83;0.00
23318;BME280;11831;55.918;37.746;2023-03-23T08:29:59;98854.97;;;11.15;0.00
23318;BME280;11831;55.918;37.746;2023-03-23T08:32:26;98846.94;;;11.15;0.00
23318;BME280;11831;55.918;37.746;2023-03-23T08:34:53;98855.53;;;11.17;0.00
23318;BME280;11831;55.918;37.746;2023-03-23T08:37:20;98852.84;;;11.17;0.00
23318;BME280;11831;55.918;37.746;2023-03-23T08:39:51;98848.19;;;11.29;0.00
23318;BME280;11831;55.918;37.746;2023-03-23T08:42:18;98835.34;;;11.48;0.00
23318;BME280;11831;55.918;37.746;2023-03-23T08:44:45;98854.72;;;11.00;0.00
23318;BME280;11831;55.918;37.746;2023-03-23T08:47:11;98825.66;;;11.64;0.00
23318;BME280;11831;55.918;37.746;2023-03-23T08:49:38;98833.53;;;12.24;0.00
23318;BME280;11831;55.918;37.746;2023-03-23T08:52:04;98836.00;;;11.99;0.00
23318;BME280;11831;55.918;37.746;2023-03-23T08:54:31;98821.28;;;12.01;0.00
23318;BME280;11831;55.918;37.746;2023-03-23T08:57:02;98810.44;;;12.18;0.00
23318;BME280;11831;55.918;37.746;2023-03-23T08:59:29;98809.00;;;12.05;0.00
23318;BME280;11831;55.918;37.746;2023-03-23T09:01:56;98817.91;;;11.67;0.00
23318;BME280;11831;55.918;37.746;2023-03-23T09:04:22;98800.09;;;12.00;0.00
23318;BME280;11831;55.918;37.746;2023-03-23T09:06:49;98806.31;;;12.05;0.00
23318;BME280;11831;55.918;37.746;2023-03-23T09:09:15;98807.13;;;12.06;0.00
23318;BME280;11831;55.918;37.746;2023-03-23T09:11:42;98804.22;;;12.12;0.00
23318;BME280;11831;55.918;37.746;2023-03-23T09:14:08;98793.44;;;11.59;0.00
23318;BME280;11831;55.918;37.746;2023-03-23T09:16:35;98810.44;;;11.91;0.00
23318;BME280;11831;55.918;37.746;2023-03-23T09:19:01;98791.53;;;12.30;0.00
23318;BME280;11831;55.918;37.746;2023-03-23T09:21:28;98785.81;;;12.53;0.00
23318;BME280;11831;55.918;37.746;2023-03-23T09:23:55;98790.28;;;12.74;0.00
23318;BME280;11831;55.918;37.746;2023-03-23T09:26:25;98780.28;;;13.49;0.00
23318;BME280;11831;55.918;37.746;2023-03-23T09:28:53;98802.53;;;12.28;0.00
23318;BME280;11831;55.918;37.746;2023-03-23T09:31:19;98785.75;;;12.43;0.00
23318;BME280;11831;55.918;37.746;2023-03-23T09:33:46;98772.25;;;12.65;0.00
23318;BME280;11831;55.918;37.746;2023-03-23T09:36:13;98761.97;;;12.89;0.00
23318;BME280;11831;55.918;37.746;2023-03-23T09:38:43;98771.91;;;12.93;0.00
23318;BME280;11831;55.918;37.746;2023-03-23T09:41:26;98764.69;;;12.99;0.00
23318;BME280;11831;55.918;37.746;2023-03-23T09:44:12;98747.25;;;12.96;0.00
23318;BME280;11831;55.918;37.746;2023-03-23T09:49:41;98748.63;;;13.04;0.00
23318;BME280;11831;55.918;37.746;2023-03-23T09:52:15;98737.22;;;12.82;0.00
23318;BME280;11831;55.918;37.746;2023-03-23T09:54:48;98740.06;;;13.12;0.00
23318;BME280;11831;55.918;37.746;2023-03-23T10:00:22;98731.94;;;12.92;0.00
23318;BME280;11831;55.918;37.746;2023-03-23T10:03:13;98754.00;;;13.09;0.00
23318;BME280;11831;55.918;37.746;2023-03-23T10:05:45;98735.06;;;12.84;0.00
23318;BME280;11831;55.918;37.746;2023-03-23T10:08:15;98727.66;;;12.96;0.00
23318;BME280;11831;55.918;37.746;2023-03-23T10:16:33;98722.56;;;13.57;0.00
23318;BME280;11831;55.918;37.746;2023-03-23T10:21:39;98722.56;;;13.57;0.00
23318;BME280;11831;55.918;37.746;2023-03-23T10:24:11;98715.38;;;13.83;0.00
23318;BME280;11831;55.918;37.746;2023-03-23T10:31:53;98698.88;;;13.39;0.00
23318;BME280;11831;55.918;37.746;2023-03-23T10:39:24;98724.25;;;13.83;0.00
23318;BME280;11831;55.918;37.746;2023-03-23T10:41:53;98709.72;;;13.94;0.00
23318;BME280;11831;55.918;37.746;2023-03-23T10:44:22;98715.66;;;14.27;0.00
23318;BME280;11831;55.918;37.746;2023-03-23T10:46:58;98705.75;;;14.48;0.00
23318;BME280;11831;55.918;37.746;2023-03-23T10:52:29;98726.66;;;15.56;0.00
23318;BME280;11831;55.918;37.746;2023-03-23T10:55:16;98701.38;;;16.01;0.00
23318;BME280;11831;55.918;37.746;2023-03-23T10:57:46;98705.09;;;15.56;0.00
23318;BME280;11831;55.918;37.746;2023-03-23T11:00:24;98730.13;;;14.97;0.00
23318;BME280;11831;55.918;37.746;2023-03-23T11:03:02;98698.25;;;15.25;0.00
23318;BME280;11831;55.918;37.746;2023-03-23T11:05:52;98716.69;;;15.57;0.00
23318;BME280;11831;55.918;37.746;2023-03-23T11:08:22;98718.63;;;16.00;0.00
23318;BME280;11831;55.918;37.746;2023-03-23T11:13:20;98714.56;;;16.95;0.00
23318;BME280;11831;55.918;37.746;2023-03-23T11:15:48;98739.25;;;17.07;0.00
23318;BME280;11831;55.918;37.746;2023-03-23T11:18:20;98690.13;;;17.29;0.00
23318;BME280;11831;55.918;37.746;2023-03-23T11:20:54;98714.75;;;16.45;0.00
23318;BME280;11831;55.918;37.746;2023-03-23T11:23:29;98710.19;;;16.41;0.00
23318;BME280;11831;55.918;37.746;2023-03-23T11:26:08;98700.66;;;15.86;0.00
23318;BME280;11831;55.918;37.746;2023-03-23T11:28:41;98701.41;;;15.42;0.00
23318;BME280;11831;55.918;37.746;2023-03-23T11:31:09;98723.56;;;15.23;0.00
23318;BME280;11831;55.918;37.746;2023-03-23T11:36:32;98701.31;;;14.98;0.00
23318;BME280;11831;55.918;37.746;2023-03-23T11:39:00;98725.28;;;14.94;0.00
23318;BME280;11831;55.918;37.746;2023-03-23T11:41:34;98714.31;;;14.70;0.00
23318;BME280;11831;55.918;37.746;2023-03-23T11:44:10;98708.66;;;14.36;0.00
23318;BME280;11831;55.918;37.746;2023-03-23T11:46:48;98695.75;;;14.33;0.00
23318;BME280;11831;55.918;37.746;2023-03-23T11:55:18;98697.66;;;13.87;0.00
23318;BME280;11831;55.918;37.746;2023-03-23T11:57:45;98728.59;;;14.40;0.00
23318;BME280;11831;55.918;37.746;2023-03-23T12:09:02;98689.31;;;13.78;0.00
23318;BME280;11831;55.918;37.746;2023-03-23T12:19:46;98691.66;;;13.49;0.00
23318;BME280;11831;55.918;37.746;2023-03-23T12:22:30;98692.50;;;13.75;0.00
23318;BME280;11831;55.918;37.746;2023-03-23T12:28:07;98676.97;;;14.23;0.00
23318;BME280;11831;55.918;37.746;2023-03-23T12:36:37;98678.25;;;13.54;0.00
23318;BME280;11831;55.918;37.746;2023-03-23T12:39:29;98679.50;;;13.26;0.00
23318;BME280;11831;55.918;37.746;2023-03-23T12:44:39;98689.59;;;13.09;0.00
23318;BME280;11831;55.918;37.746;2023-03-23T12:47:31;98672.25;;;13.22;0.00
23318;BME280;11831;55.918;37.746;2023-03-23T12:52:51;98671.88;;;13.08;0.00
23318;BME280;11831;55.918;37.746;2023-03-23T12:55:27;98656.16;;;13.27;0.00
23318;BME280;11831;55.918;37.746;2023-03-23T12:58:09;98649.78;;;13.53;0.00
23318;BME280;11831;55.918;37.746;2023-03-23T13:06:55;98647.84;;;13.44;0.00
23318;BME280;11831;55.918;37.746;2023-03-23T13:09:18;98632.84;;;13.48;0.00
23318;BME280;11831;55.918;37.746;2023-03-23T13:11:47;98667.97;;;13.31;0.00
23318;BME280;11831;55.918;37.746;2023-03-23T13:17:11;98638.25;;;13.73;0.00
23318;BME280;11831;55.918;37.746;2023-03-23T13:20:18;98643.91;;;13.82;0.00
23318;BME280;11831;55.918;37.746;2023-03-23T13:26:02;98636.91;;;13.86;0.00
23318;BME280;11831;55.918;37.746;2023-03-23T13:31:17;98618.31;;;14.30;0.00
23318;BME280;11831;55.918;37.746;2023-03-23T13:33:58;98624.00;;;13.93;0.00
23318;BME280;11831;55.918;37.746;2023-03-23T13:36:31;98623.19;;;13.62;0.00
23318;BME280;11831;55.918;37.746;2023-03-23T13:38:59;98616.47;;;14.00;0.00
23318;BME280;11831;55.918;37.746;2023-03-23T13:41:27;98624.28;;;13.71;0.00
23318;BME280;11831;55.918;37.746;2023-03-23T13:44:07;98622.66;;;13.70;0.00
23318;BME280;11831;55.918;37.746;2023-03-23T13:46:41;98611.91;;;13.50;0.00
23318;BME280;11831;55.918;37.746;2023-03-23T13:51:46;98610.00;;;13.35;0.00
23318;BME280;11831;55.918;37.746;2023-03-23T13:54:15;98606.75;;;13.23;0.00
23318;BME280;11831;55.918;37.746;2023-03-23T13:56:55;98599.78;;;13.37;0.00
23318;BME280;11831;55.918;37.746;2023-03-23T13:59:34;98616.22;;;13.71;0.00
23318;BME280;11831;55.918;37.746;2023-03-23T14:02:28;98596.31;;;13.97;0.00
23318;BME280;11831;55.918;37.746;2023-03-23T14:05:07;98593.66;;;13.92;0.00
23318;BME280;11831;55.918;37.746;2023-03-23T14:07:52;98582.38;;;13.85;0.00
23318;BME280;11831;55.918;37.746;2023-03-23T14:10:19;98589.06;;;13.37;0.00
23318;BME280;11831;55.918;37.746;2023-03-23T14:12:48;98590.13;;;13.21;0.00
23318;BME280;11831;55.918;37.746;2023-03-23T14:15:16;98597.25;;;13.00;0.00
23318;BME280;11831;55.918;37.746;2023-03-23T14:17:44;98585.31;;;13.53;0.00
23318;BME280;11831;55.918;37.746;2023-03-23T14:20:23;98589.03;;;13.27;0.00
23318;BME280;11831;55.918;37.746;2023-03-23T14:22:55;98586.81;;;13.09;0.00
23318;BME280;11831;55.918;37.746;2023-03-23T14:25:26;98584.75;;;13.41;0.00
23318;BME280;11831;55.918;37.746;2023-03-23T14:27:53;98579.66;;;13.40;0.00
23318;BME280;11831;55.918;37.746;2023-03-23T14:30:26;98597.25;;;13.00;0.00
23318;BME280;11831;55.918;37.746;2023-03-23T14:33:03;98578.19;;;12.86;0.00
23318;BME280;11831;55.918;37.746;2023-03-23T14:35:37;98576.50;;;12.70;0.00
23318;BME280;11831;55.918;37.746;2023-03-23T14:38:15;98568.41;;;12.60;0.00
23318;BME280;11831;55.918;37.746;2023-03-23T14:40:42;98573.50;;;12.56;0.00
23318;BME280;11831;55.918;37.746;2023-03-23T14:43:10;98547.75;;;12.55;0.00
23318;BME280;11831;55.918;37.746;2023-03-23T14:45:39;98573.44;;;12.46;0.00
23318;BME280;11831;55.918;37.746;2023-03-23T14:48:07;98554.38;;;12.42;0.00
23318;BME280;11831;55.918;37.746;2023-03-23T14:50:41;98545.91;;;12.66;0.00
23318;BME280;11831;55.918;37.746;2023-03-23T14:53:30;98554.16;;;12.49;0.00
23318;BME280;11831;55.918;37.746;2023-03-23T14:56:00;98549.94;;;12.68;0.00
23318;BME280;11831;55.918;37.746;2023-03-23T14:58:28;98557.19;;;12.68;0.00
23318;BME280;11831;55.918;37.746;2023-03-23T15:01:06;98543.13;;;12.40;0.00
23318;BME280;11831;55.918;37.746;2023-03-23T15:03:40;98562.09;;;12.29;0.00
23318;BME280;11831;55.918;37.746;2023-03-23T15:06:17;98557.38;;;12.51;0.00
23318;BME280;11831;55.918;37.746;2023-03-23T15:08:45;98566.75;;;12.49;0.00
23318;BME280;11831;55.918;37.746;2023-03-23T15:13:51;98568.28;;;12.92;0.00
23318;BME280;11831;55.918;37.746;2023-03-23T15:16:26;98577.25;;;12.55;0.00